Time;durP1;ratioP1;P1;durP2;ratioP2;P2;SDS_P1;SDS_P2;PMS_P1;PMS_P2;Temp;Humidity;BMP_temperature;BMP_pressure;BME280_temperature;BME280_humidity;BME280_pressure;Samples;Min_cycle;Max_cycle;Signal;HPM_P1;HPM_P2
2021/12/18 00:00:36;;;;;;;6.70;5.82;;;;;;;;;;5113741;28;20043;-64
2021/12/18 00:03:03;;;;;;;7.93;6.25;;;;;;;;;;5113895;28;20051;-64
2021/12/18 00:05:29;;;;;;;6.43;5.57;;;;;;;;;;5114148;28;20047;-64
2021/12/18 00:07:55;;;;;;;6.00;5.40;;;;;;;;;;5113578;28;20043;-64
2021/12/18 00:10:23;;;;;;;5.75;5.18;;;;;;;;;;5114341;28;20743;-64
2021/12/18 00:12:50;;;;;;;5.75;5.15;;;;;;;;;;5113924;28;20044;-63
2021/12/18 00:15:17;;;;;;;7.05;6.03;;;;;;;;;;5113235;28;20509;-64
2021/12/18 00:17:43;;;;;;;6.70;5.78;;;;;;;;;;5113684;28;20043;-64
2021/12/18 00:20:10;;;;;;;5.85;5.03;;;;;;;;;;5113868;28;20089;-63
2021/12/18 00:22:36;;;;;;;6.45;5.60;;;;;;;;;;5113571;28;20097;-64
2021/12/18 00:25:03;;;;;;;5.80;5.20;;;;;;;;;;5113675;28;20055;-64
2021/12/18 00:27:30;;;;;;;5.93;5.32;;;;;;;;;;5113848;28;20051;-64
2021/12/18 00:29:57;;;;;;;6.35;5.47;;;;;;;;;;5112901;28;20051;-64
2021/12/18 00:32:23;;;;;;;6.85;5.88;;;;;;;;;;5113520;28;20537;-63
2021/12/18 00:34:49;;;;;;;5.95;5.35;;;;;;;;;;5113690;28;20100;-63
2021/12/18 00:37:15;;;;;;;6.72;5.35;;;;;;;;;;5112822;28;20486;-64
2021/12/18 00:39:50;;;;;;;6.53;5.28;;;;;;;;;;5113769;28;20081;-63
2021/12/18 00:42:25;;;;;;;6.57;5.70;;;;;;;;;;5113561;28;20051;-63
2021/12/18 00:44:53;;;;;;;6.47;5.68;;;;;;;;;;5112633;28;20117;-63
2021/12/18 00:47:19;;;;;;;6.70;5.43;;;;;;;;;;5113702;28;20101;-63
2021/12/18 00:49:45;;;;;;;7.22;6.03;;;;;;;;;;5112475;28;20459;-63
2021/12/18 00:52:12;;;;;;;6.45;5.78;;;;;;;;;;5112657;28;20104;-63
2021/12/18 00:54:39;;;;;;;6.18;5.15;;;;;;;;;;5113582;28;20057;-63
2021/12/18 00:57:05;;;;;;;5.85;5.25;;;;;;;;;;5112107;28;20113;-63
2021/12/18 00:59:34;;;;;;;6.45;5.47;;;;;;;;;;5113499;28;20052;-63
2021/12/18 01:02:01;;;;;;;6.15;5.32;;;;;;;;;;5113170;28;20052;-63
2021/12/18 01:04:27;;;;;;;6.13;5.53;;;;;;;;;;5112284;28;20411;-63
2021/12/18 01:06:54;;;;;;;6.25;5.22;;;;;;;;;;5112927;28;20135;-63
2021/12/18 01:09:29;;;;;;;6.68;5.78;;;;;;;;;;5113130;28;20444;-63
2021/12/18 01:11:56;;;;;;;6.05;5.45;;;;;;;;;;5112000;28;20071;-63
2021/12/18 01:14:44;;;;;;;6.57;5.57;;;;;;;;;;5113070;28;20055;-63
2021/12/18 01:22:48;;;;;;;5.95;5.35;;;;;;;;;;5077740;28;20081;-64
2021/12/18 01:25:15;;;;;;;8.40;5.78;;;;;;;;;;5111935;28;20489;-64
2021/12/18 01:27:42;;;;;;;6.20;5.45;;;;;;;;;;5112667;28;20073;-64
2021/12/18 01:30:10;;;;;;;6.90;5.50;;;;;;;;;;5112639;28;20087;-64
2021/12/18 01:32:38;;;;;;;5.97;5.38;;;;;;;;;;5111893;28;20096;-63
2021/12/18 01:35:05;;;;;;;6.30;5.43;;;;;;;;;;5112540;28;20100;-64
2021/12/18 01:37:31;;;;;;;5.60;5.00;;;;;;;;;;5112544;28;20043;-64
2021/12/18 01:39:57;;;;;;;6.28;5.28;;;;;;;;;;5111536;28;20403;-64
2021/12/18 01:43:03;;;;;;;6.40;5.22;;;;;;;;;;5112464;28;20044;-63
2021/12/18 01:45:26;;;;;;;6.18;5.30;;;;;;;;;;5112294;28;20045;-63
2021/12/18 01:53:22;;;;;;;6.65;5.38;;;;;;;;;;5111571;28;20062;-63
2021/12/18 01:55:51;;;;;;;6.47;5.47;;;;;;;;;;5111784;28;20048;-63
2021/12/18 01:58:21;;;;;;;7.38;5.45;;;;;;;;;;5112194;28;20055;-63
2021/12/18 02:00:47;;;;;;;5.95;5.35;;;;;;;;;;5111236;28;20051;-64
2021/12/18 02:03:15;;;;;;;7.25;5.30;;;;;;;;;;5111761;28;20047;-64
2021/12/18 02:05:41;;;;;;;5.53;4.70;;;;;;;;;;5111973;28;20116;-64
2021/12/18 02:08:08;;;;;;;5.22;4.70;;;;;;;;;;5111182;28;20047;-63
2021/12/18 02:10:46;;;;;;;5.32;4.80;;;;;;;;;;5111762;28;20052;-63
2021/12/18 02:13:25;;;;;;;6.22;5.18;;;;;;;;;;5111913;28;20134;-63
2021/12/18 02:21:24;;;;;;;6.68;5.18;;;;;;;;;;5111180;28;20456;-64
2021/12/18 02:23:50;;;;;;;5.07;4.57;;;;;;;;;;5111472;28;20044;-63
2021/12/18 02:26:17;;;;;;;5.20;4.70;;;;;;;;;;5111495;28;20149;-63
2021/12/18 02:28:47;;;;;;;5.20;4.70;;;;;;;;;;5110522;28;20048;-64
2021/12/18 02:31:13;;;;;;;5.90;5.20;;;;;;;;;;5111557;28;20051;-63
2021/12/18 02:33:40;;;;;;;5.85;4.75;;;;;;;;;;5111837;28;20044;-63
2021/12/18 02:36:09;;;;;;;5.53;4.93;;;;;;;;;;5111004;28;20138;-63
2021/12/18 02:38:57;;;;;;;5.50;4.97;;;;;;;;;;5111610;28;20043;-64
2021/12/18 02:41:29;;;;;;;5.70;4.78;;;;;;;;;;5111519;28;20061;-64
2021/12/18 02:43:58;;;;;;;7.18;5.30;;;;;;;;;;5110737;28;20047;-63
2021/12/18 02:46:24;;;;;;;5.82;5.05;;;;;;;;;;5111613;28;20071;-64
2021/12/18 02:48:51;;;;;;;6.15;5.10;;;;;;;;;;5111083;28;20048;-64
2021/12/18 02:51:18;;;;;;;6.20;5.07;;;;;;;;;;5110634;28;20047;-64
2021/12/18 02:53:47;;;;;;;5.75;4.90;;;;;;;;;;5111194;28;20039;-63
2021/12/18 02:56:14;;;;;;;5.47;4.80;;;;;;;;;;5110892;28;20117;-63
2021/12/18 02:58:42;;;;;;;6.03;5.10;;;;;;;;;;5111497;28;20036;-63
2021/12/18 03:01:09;;;;;;;5.40;4.90;;;;;;;;;;5111255;28;20058;-64
2021/12/18 03:03:39;;;;;;;6.40;5.53;;;;;;;;;;5110519;28;20753;-64
2021/12/18 03:06:19;;;;;;;5.00;4.47;;;;;;;;;;5111167;28;20435;-64
2021/12/18 03:08:54;;;;;;;7.63;5.38;;;;;;;;;;5110847;28;20487;-63
2021/12/18 03:22:51;;;;;;;5.72;4.93;;;;;;;;;;5115106;28;20096;-63
2021/12/18 03:25:21;;;;;;;5.28;4.70;;;;;;;;;;5114253;28;20073;-63
2021/12/18 03:27:48;;;;;;;5.72;5.10;;;;;;;;;;5114919;28;20058;-63
2021/12/18 03:30:15;;;;;;;5.70;4.93;;;;;;;;;;5114906;28;20055;-63
2021/12/18 03:32:41;;;;;;;5.53;4.93;;;;;;;;;;5114368;28;20044;-63
2021/12/18 03:35:09;;;;;;;5.60;4.90;;;;;;;;;;5114864;28;20074;-63
2021/12/18 03:37:36;;;;;;;9.55;5.47;;;;;;;;;;5114822;28;20047;-63
2021/12/18 03:40:03;;;;;;;6.68;5.38;;;;;;;;;;5113706;28;20047;-63
2021/12/18 03:42:30;;;;;;;6.10;5.03;;;;;;;;;;5114931;28;20093;-63
2021/12/18 03:44:56;;;;;;;5.57;4.70;;;;;;;;;;5114563;28;20093;-63
2021/12/18 03:47:23;;;;;;;5.40;4.80;;;;;;;;;;5114121;28;20473;-63
2021/12/18 03:49:49;;;;;;;6.10;5.18;;;;;;;;;;5114423;28;20044;-63
2021/12/18 03:52:15;;;;;;;5.25;4.75;;;;;;;;;;5114466;28;20100;-63
2021/12/18 03:54:41;;;;;;;5.65;4.57;;;;;;;;;;5113686;28;20047;-63
2021/12/18 03:57:07;;;;;;;5.65;5.05;;;;;;;;;;5114602;28;20097;-63
2021/12/18 03:59:35;;;;;;;7.40;4.80;;;;;;;;;;5113680;28;20040;-63
2021/12/18 04:02:01;;;;;;;5.43;4.82;;;;;;;;;;5114265;28;20092;-63
2021/12/18 04:04:28;;;;;;;5.45;4.82;;;;;;;;;;5114186;28;20051;-63
2021/12/18 04:06:54;;;;;;;6.15;5.38;;;;;;;;;;5113169;28;20944;-61
2021/12/18 04:09:20;;;;;;;6.72;5.22;;;;;;;;;;5114190;28;20486;-62
2021/12/18 04:11:46;;;;;;;5.20;4.45;;;;;;;;;;5113986;28;20048;-63
2021/12/18 04:14:14;;;;;;;5.00;4.38;;;;;;;;;;5113633;28;20044;-61
2021/12/18 04:16:41;;;;;;;6.68;5.57;;;;;;;;;;5114229;28;20079;-60
2021/12/18 04:19:07;;;;;;;5.78;5.03;;;;;;;;;;5114099;28;20052;-60
2021/12/18 04:21:34;;;;;;;5.50;4.57;;;;;;;;;;5113297;28;20055;-60
2021/12/18 04:24:00;;;;;;;4.97;4.22;;;;;;;;;;5113793;28;20123;-60
2021/12/18 04:26:26;;;;;;;5.45;4.72;;;;;;;;;;5112589;28;20047;-61
2021/12/18 04:28:52;;;;;;;5.68;4.70;;;;;;;;;;5112968;28;20471;-60
2021/12/18 04:31:19;;;;;;;5.30;4.80;;;;;;;;;;5113512;28;20482;-61
2021/12/18 04:33:46;;;;;;;5.40;4.57;;;;;;;;;;5113557;28;20051;-61
2021/12/18 04:36:12;;;;;;;5.25;4.40;;;;;;;;;;5112908;28;20056;-60
2021/12/18 04:38:39;;;;;;;5.68;4.32;;;;;;;;;;5113913;28;20039;-61
2021/12/18 04:41:06;;;;;;;5.93;4.72;;;;;;;;;;5113413;28;20044;-61
2021/12/18 04:43:32;;;;;;;5.22;4.20;;;;;;;;;;5112997;28;20048;-61
2021/12/18 04:45:58;;;;;;;4.97;4.45;;;;;;;;;;5113351;28;20043;-61
2021/12/18 04:48:25;;;;;;;5.57;4.35;;;;;;;;;;5113335;28;20482;-61
2021/12/18 04:50:52;;;;;;;4.72;4.03;;;;;;;;;;5112311;28;20096;-61
2021/12/18 04:53:18;;;;;;;4.55;4.03;;;;;;;;;;5113551;28;20047;-61
2021/12/18 04:55:45;;;;;;;4.93;4.00;;;;;;;;;;5113204;28;20047;-61
2021/12/18 04:58:12;;;;;;;4.50;3.83;;;;;;;;;;5112625;28;20047;-61
2021/12/18 05:00:39;;;;;;;4.85;3.80;;;;;;;;;;5113410;28;20120;-61
2021/12/18 05:03:07;;;;;;;4.03;3.55;;;;;;;;;;5111840;28;20248;-61
2021/12/18 05:05:34;;;;;;;4.03;3.45;;;;;;;;;;5113478;28;20070;-61
2021/12/18 05:08:02;;;;;;;3.85;3.40;;;;;;;;;;5112881;28;20444;-61
2021/12/18 05:10:28;;;;;;;4.13;3.63;;;;;;;;;;5112384;28;20051;-61
2021/12/18 05:12:55;;;;;;;4.20;3.65;;;;;;;;;;5112731;28;20539;-61
2021/12/18 05:15:21;;;;;;;4.07;3.40;;;;;;;;;;5113009;28;20040;-60
2021/12/18 05:17:47;;;;;;;4.50;3.58;;;;;;;;;;5111886;28;20048;-60
2021/12/18 05:20:13;;;;;;;4.18;3.47;;;;;;;;;;5112992;28;20044;-60
2021/12/18 05:22:39;;;;;;;3.75;3.38;;;;;;;;;;5113097;28;20048;-61
2021/12/18 05:25:08;;;;;;;4.07;3.38;;;;;;;;;;5111818;28;20089;-61
2021/12/18 05:27:34;;;;;;;3.63;3.17;;;;;;;;;;5112685;28;20097;-60
2021/12/18 05:30:00;;;;;;;3.33;2.97;;;;;;;;;;5112310;28;20113;-60
2021/12/18 05:32:26;;;;;;;4.55;3.17;;;;;;;;;;5111702;28;20056;-60
2021/12/18 05:34:53;;;;;;;3.63;2.90;;;;;;;;;;5112581;28;20043;-61
2021/12/18 05:37:30;;;;;;;3.90;3.17;;;;;;;;;;5112298;28;20047;-61
2021/12/18 05:39:56;;;;;;;3.17;2.88;;;;;;;;;;5111575;28;20168;-61
2021/12/18 05:42:24;;;;;;;3.15;2.78;;;;;;;;;;5112415;28;20044;-61
2021/12/18 05:44:50;;;;;;;3.50;3.00;;;;;;;;;;5111999;28;20096;-61
2021/12/18 05:47:16;;;;;;;3.35;2.63;;;;;;;;;;5111819;28;20047;-61
2021/12/18 05:49:43;;;;;;;3.50;2.65;;;;;;;;;;5112238;28;20459;-61
2021/12/18 05:52:09;;;;;;;3.95;2.78;;;;;;;;;;5111773;28;20093;-61
2021/12/18 05:54:36;;;;;;;2.60;2.35;;;;;;;;;;5112159;28;20051;-61
2021/12/18 05:57:03;;;;;;;2.45;2.17;;;;;;;;;;5112079;28;20151;-61
2021/12/18 05:59:30;;;;;;;3.10;2.70;;;;;;;;;;5111127;28;20051;-61
2021/12/18 06:01:57;;;;;;;3.50;3.00;;;;;;;;;;5111926;28;20051;-61
2021/12/18 06:04:23;;;;;;;2.70;2.20;;;;;;;;;;5111796;28;20056;-61
2021/12/18 06:06:49;;;;;;;3.15;2.70;;;;;;;;;;5112368;28;20104;-63
2021/12/18 06:09:16;;;;;;;3.08;2.55;;;;;;;;;;5111932;28;20039;-62
2021/12/18 06:11:42;;;;;;;2.67;2.30;;;;;;;;;;5111766;28;20048;-62
2021/12/18 06:14:09;;;;;;;3.10;2.72;;;;;;;;;;5111068;28;20134;-63
2021/12/18 06:16:36;;;;;;;2.45;2.20;;;;;;;;;;5112006;28;20092;-63
2021/12/18 06:19:03;;;;;;;3.65;2.50;;;;;;;;;;5111675;28;20048;-62
2021/12/18 06:21:29;;;;;;;3.03;2.20;;;;;;;;;;5111326;28;20466;-62
2021/12/18 06:23:56;;;;;;;2.78;2.28;;;;;;;;;;5111253;28;20044;-62
2021/12/18 06:26:23;;;;;;;2.85;2.10;;;;;;;;;;5111557;28;20547;-61
2021/12/18 06:28:49;;;;;;;2.28;2.08;;;;;;;;;;5110851;28;20051;-61
2021/12/18 06:31:16;;;;;;;3.17;2.33;;;;;;;;;;5111620;28;20051;-61
2021/12/18 06:33:43;;;;;;;2.67;2.35;;;;;;;;;;5111432;28;20070;-61
2021/12/18 06:36:10;;;;;;;3.00;2.30;;;;;;;;;;5111831;28;20043;-62
2021/12/18 06:38:36;;;;;;;2.30;2.10;;;;;;;;;;5112032;28;20375;-62
2021/12/18 06:41:02;;;;;;;2.50;2.13;;;;;;;;;;5111158;28;20539;-61
2021/12/18 06:43:28;;;;;;;3.80;1.98;;;;;;;;;;5110778;28;20047;-62
2021/12/18 06:45:55;;;;;;;2.08;1.88;;;;;;;;;;5111200;28;20047;-62
2021/12/18 06:48:21;;;;;;;2.92;2.25;;;;;;;;;;5111062;28;20089;-62
2021/12/18 06:50:50;;;;;;;2.38;2.10;;;;;;;;;;5114298;28;20051;-62
2021/12/18 06:53:16;;;;;;;2.30;2.08;;;;;;;;;;5115695;28;20101;-62
2021/12/18 06:55:43;;;;;;;3.38;2.00;;;;;;;;;;5114579;28;20422;-62
2021/12/18 06:58:09;;;;;;;2.67;2.08;;;;;;;;;;5115574;28;20047;-62
2021/12/18 07:00:35;;;;;;;2.50;2.10;;;;;;;;;;5115468;28;20449;-62
2021/12/18 07:03:02;;;;;;;2.92;2.00;;;;;;;;;;5114500;28;20445;-62
2021/12/18 07:05:28;;;;;;;2.22;1.95;;;;;;;;;;5115400;28;20436;-62
2021/12/18 07:07:56;;;;;;;2.20;1.83;;;;;;;;;;5115195;28;20052;-62
2021/12/18 07:10:22;;;;;;;2.20;1.85;;;;;;;;;;5114330;28;20401;-62
2021/12/18 07:12:48;;;;;;;2.58;2.22;;;;;;;;;;5115476;28;20043;-62
2021/12/18 07:15:15;;;;;;;2.50;1.77;;;;;;;;;;5115475;28;20051;-61
2021/12/18 07:17:41;;;;;;;2.35;1.98;;;;;;;;;;5114410;28;20551;-61
2021/12/18 07:20:08;;;;;;;2.17;1.95;;;;;;;;;;5115405;28;20100;-61
2021/12/18 07:22:35;;;;;;;2.20;2.00;;;;;;;;;;5115093;28;20040;-61
2021/12/18 07:25:03;;;;;;;2.90;2.30;;;;;;;;;;5113987;28;20047;-61
2021/12/18 07:27:29;;;;;;;2.58;2.20;;;;;;;;;;5115077;28;20062;-61
2021/12/18 07:29:55;;;;;;;2.08;1.88;;;;;;;;;;5114650;28;20044;-62
2021/12/18 07:32:21;;;;;;;2.13;1.92;;;;;;;;;;5114233;28;20048;-62
2021/12/18 07:34:47;;;;;;;2.00;1.80;;;;;;;;;;5114790;28;20063;-62
2021/12/18 07:37:14;;;;;;;3.05;2.20;;;;;;;;;;5114806;28;20047;-62
2021/12/18 07:39:40;;;;;;;2.15;1.95;;;;;;;;;;5114125;28;20044;-63
2021/12/18 07:42:08;;;;;;;2.42;2.05;;;;;;;;;;5114414;28;20047;-61
2021/12/18 07:44:35;;;;;;;2.28;2.08;;;;;;;;;;5115411;28;20043;-62
2021/12/18 07:47:01;;;;;;;2.28;2.00;;;;;;;;;;5114721;28;20521;-63
2021/12/18 07:49:27;;;;;;;2.13;1.80;;;;;;;;;;5114893;28;20039;-62
2021/12/18 07:51:59;;;;;;;2.22;1.95;;;;;;;;;;5113507;28;20055;-63
2021/12/18 07:54:25;;;;;;;3.45;1.80;;;;;;;;;;5114922;28;20071;-63
2021/12/18 07:56:51;;;;;;;2.10;1.90;;;;;;;;;;5114544;27;20375;-61
2021/12/18 07:59:19;;;;;;;2.45;2.00;;;;;;;;;;5114054;28;20043;-62
2021/12/18 08:01:45;;;;;;;2.03;1.83;;;;;;;;;;5113988;28;20053;-62
2021/12/18 08:04:11;;;;;;;2.35;2.00;;;;;;;;;;5114490;28;20055;-63
2021/12/18 08:06:38;;;;;;;2.13;1.77;;;;;;;;;;5113081;28;20043;-61
2021/12/18 08:09:04;;;;;;;4.57;2.10;;;;;;;;;;5113889;27;20410;-62
2021/12/18 08:11:30;;;;;;;2.13;1.73;;;;;;;;;;5114664;28;20047;-62
2021/12/18 08:13:56;;;;;;;2.30;1.90;;;;;;;;;;5113298;28;20077;-61
2021/12/18 08:16:24;;;;;;;1.75;1.60;;;;;;;;;;5114423;28;20044;-62
2021/12/18 08:18:50;;;;;;;2.38;1.70;;;;;;;;;;5113260;28;20047;-63
2021/12/18 08:21:17;;;;;;;1.92;1.63;;;;;;;;;;5112781;28;20105;-62
2021/12/18 08:23:43;;;;;;;2.10;1.90;;;;;;;;;;5113949;28;20117;-63
2021/12/18 08:26:09;;;;;;;2.78;1.60;;;;;;;;;;5114098;28;20116;-64
2021/12/18 08:28:35;;;;;;;3.53;2.10;;;;;;;;;;5113269;28;20103;-64
2021/12/18 08:31:02;;;;;;;2.88;1.80;;;;;;;;;;5113630;28;20059;-63
2021/12/18 08:33:29;;;;;;;1.90;1.67;;;;;;;;;;5113974;28;20104;-63
2021/12/18 08:35:56;;;;;;;1.92;1.60;;;;;;;;;;5112770;28;20040;-63
2021/12/18 08:38:22;;;;;;;1.70;1.30;;;;;;;;;;5113932;28;20040;-63
2021/12/18 08:40:50;;;;;;;1.63;1.38;;;;;;;;;;5113696;28;20040;-63
2021/12/18 08:43:16;;;;;;;3.28;1.50;;;;;;;;;;5113095;28;20047;-63
2021/12/18 08:45:42;;;;;;;1.60;1.40;;;;;;;;;;5108833;28;20039;-62
2021/12/18 08:48:09;;;;;;;2.00;1.50;;;;;;;;;;5092344;28;20048;-62
2021/12/18 08:50:36;;;;;;;1.73;1.30;;;;;;;;;;5093235;28;20101;-62
2021/12/18 08:53:02;;;;;;;1.35;1.17;;;;;;;;;;5092539;28;20494;-62
2021/12/18 08:55:28;;;;;;;1.45;1.10;;;;;;;;;;5092369;28;20048;-62
2021/12/18 08:57:55;;;;;;;1.50;1.30;;;;;;;;;;5092692;28;20048;-62
2021/12/18 09:00:23;;;;;;;1.58;1.30;;;;;;;;;;5112524;28;20073;-62
2021/12/18 09:02:51;;;;;;;1.15;1.05;;;;;;;;;;5112115;28;20527;-62
2021/12/18 09:05:17;;;;;;;1.77;1.45;;;;;;;;;;5113794;28;20080;-62
2021/12/18 09:07:45;;;;;;;1.60;1.15;;;;;;;;;;5113135;28;20044;-62
2021/12/18 09:10:12;;;;;;;1.30;1.15;;;;;;;;;;5112510;28;20085;-62
2021/12/18 09:12:38;;;;;;;2.35;1.20;;;;;;;;;;5112377;28;20051;-62
2021/12/18 09:15:05;;;;;;;1.60;1.30;;;;;;;;;;5112775;28;20355;-62
2021/12/18 09:17:31;;;;;;;1.33;1.23;;;;;;;;;;5112154;28;20526;-62
2021/12/18 09:19:57;;;;;;;1.70;1.60;;;;;;;;;;5112917;28;20043;-62
2021/12/18 09:22:23;;;;;;;1.75;1.50;;;;;;;;;;5113337;28;20044;-62
2021/12/18 09:24:51;;;;;;;2.05;1.55;;;;;;;;;;5111720;28;20478;-62
2021/12/18 09:27:17;;;;;;;2.25;2.05;;;;;;;;;;5113148;28;20043;-62
2021/12/18 09:29:44;;;;;;;2.08;1.90;;;;;;;;;;5112745;28;20138;-63
2021/12/18 09:32:10;;;;;;;2.30;2.10;;;;;;;;;;5112002;28;20048;-62
2021/12/18 09:34:36;;;;;;;2.53;2.33;;;;;;;;;;5112809;28;20051;-62
2021/12/18 09:37:03;;;;;;;3.05;2.75;;;;;;;;;;5108565;28;20055;-65
2021/12/18 09:39:30;;;;;;;3.30;2.95;;;;;;;;;;5111555;28;20122;-62
2021/12/18 09:41:57;;;;;;;2.65;2.45;;;;;;;;;;5112160;28;20043;-62
2021/12/18 09:44:24;;;;;;;3.40;3.10;;;;;;;;;;5111718;28;20043;-63
2021/12/18 09:46:50;;;;;;;4.10;2.67;;;;;;;;;;5111942;28;20456;-66
2021/12/18 09:49:17;;;;;;;3.53;2.75;;;;;;;;;;5112495;28;20047;-67
2021/12/18 09:51:43;;;;;;;3.78;2.80;;;;;;;;;;5110782;28;20039;-62
2021/12/18 09:54:10;;;;;;;4.55;3.85;;;;;;;;;;5111415;28;20043;-62
2021/12/18 09:56:36;;;;;;;3.75;3.20;;;;;;;;;;5111338;28;20331;-64
2021/12/18 09:59:04;;;;;;;4.18;3.53;;;;;;;;;;5110477;28;20074;-64
2021/12/18 10:01:30;;;;;;;3.63;3.30;;;;;;;;;;5111759;28;20092;-63
2021/12/18 10:03:58;;;;;;;4.50;3.60;;;;;;;;;;5111452;28;20468;-62
2021/12/18 10:06:37;;;;;;;4.65;3.70;;;;;;;;;;5111694;28;20043;-63
2021/12/18 10:09:05;;;;;;;4.78;4.00;;;;;;;;;;5111853;28;20039;-62
2021/12/18 10:11:31;;;;;;;3.50;3.20;;;;;;;;;;5112095;28;20047;-62
2021/12/18 10:13:58;;;;;;;4.53;3.17;;;;;;;;;;5111067;28;20047;-63
2021/12/18 10:16:27;;;;;;;3.63;2.95;;;;;;;;;;5111388;28;20039;-63
2021/12/18 10:18:55;;;;;;;4.57;2.88;;;;;;;;;;5111236;28;20570;-62
2021/12/18 10:21:22;;;;;;;3.03;2.67;;;;;;;;;;5111294;28;20125;-62
2021/12/18 10:23:49;;;;;;;4.30;3.25;;;;;;;;;;5111601;28;20043;-62
2021/12/18 10:26:29;;;;;;;4.10;2.92;;;;;;;;;;5111793;28;20043;-62
2021/12/18 10:28:55;;;;;;;5.05;2.72;;;;;;;;;;5111754;28;20088;-63
2021/12/18 10:31:36;;;;;;;3.25;2.92;;;;;;;;;;5111718;28;20490;-62
2021/12/18 10:34:14;;;;;;;2.92;2.47;;;;;;;;;;5110904;28;20051;-63
2021/12/18 10:36:40;;;;;;;3.50;2.75;;;;;;;;;;5111689;28;20092;-62
2021/12/18 10:39:06;;;;;;;3.15;2.85;;;;;;;;;;5111668;28;20486;-68
2021/12/18 10:41:34;;;;;;;2.92;2.70;;;;;;;;;;5110795;28;20425;-65
2021/12/18 10:44:01;;;;;;;3.45;2.85;;;;;;;;;;5111117;28;20054;-65
2021/12/18 10:46:28;;;;;;;6.75;4.35;;;;;;;;;;5111651;28;20050;-64
2021/12/18 10:48:55;;;;;;;18.73;10.30;;;;;;;;;;5110581;28;20085;-62
2021/12/18 10:51:24;;;;;;;7.20;5.05;;;;;;;;;;5111368;28;20096;-64
2021/12/18 10:53:52;;;;;;;6.22;3.70;;;;;;;;;;5111505;28;20048;-63
2021/12/18 10:56:30;;;;;;;4.47;3.30;;;;;;;;;;5110990;28;20418;-65
2021/12/18 10:58:57;;;;;;;3.97;2.95;;;;;;;;;;5111393;28;20108;-65
2021/12/18 11:01:23;;;;;;;3.83;2.92;;;;;;;;;;5111590;28;20044;-64
2021/12/18 11:03:50;;;;;;;3.40;3.05;;;;;;;;;;5110706;28;20498;-63
2021/12/18 11:06:18;;;;;;;3.47;3.05;;;;;;;;;;5111432;28;20183;-65
2021/12/18 11:09:04;;;;;;;2.97;2.60;;;;;;;;;;5110634;28;20071;-64
2021/12/18 11:14:16;;;;;;;3.35;2.72;;;;;;;;;;5111588;28;20046;-65
2021/12/18 11:16:44;;;;;;;3.83;2.40;;;;;;;;;;5110624;28;20043;-65
2021/12/18 11:19:13;;;;;;;2.55;2.22;;;;;;;;;;5111738;28;20051;-65
2021/12/18 11:21:41;;;;;;;2.47;2.28;;;;;;;;;;5111352;28;20049;-66
2021/12/18 11:24:09;;;;;;;2.60;2.00;;;;;;;;;;5110681;28;20104;-65
2021/12/18 11:26:41;;;;;;;3.90;1.60;;;;;;;;;;5110786;28;20096;-62
2021/12/18 11:29:11;;;;;;;2.08;1.88;;;;;;;;;;5111840;28;20040;-64
2021/12/18 11:31:37;;;;;;;2.05;1.55;;;;;;;;;;5110104;28;20043;-63
2021/12/18 11:34:03;;;;;;;2.28;1.50;;;;;;;;;;5110980;28;20069;-63
2021/12/18 11:36:30;;;;;;;5.97;1.50;;;;;;;;;;5113902;28;20093;-64
2021/12/18 11:38:56;;;;;;;4.40;1.50;;;;;;;;;;5113915;28;20104;-63
2021/12/18 11:41:24;;;;;;;5.57;1.63;;;;;;;;;;5115002;28;20108;-63
2021/12/18 11:43:50;;;;;;;2.63;1.40;;;;;;;;;;5114007;28;20112;-63
2021/12/18 11:46:34;;;;;;;2.03;1.40;;;;;;;;;;5115021;28;20383;-64
2021/12/18 11:49:01;;;;;;;0.98;0.80;;;;;;;;;;5114652;28;20047;-63
2021/12/18 11:51:28;;;;;;;1.10;0.90;;;;;;;;;;5113923;28;20478;-64
2021/12/18 11:53:54;;;;;;;2.75;1.45;;;;;;;;;;5114300;27;20116;-62
2021/12/18 11:56:21;;;;;;;3.70;1.73;;;;;;;;;;5114388;28;20044;-61
2021/12/18 11:58:49;;;;;;;3.15;2.20;;;;;;;;;;5113635;28;20035;-62
2021/12/18 12:01:18;;;;;;;18.35;9.68;;;;;;;;;;5114638;28;20047;-61
2021/12/18 12:03:45;;;;;;;19.00;9.80;;;;;;;;;;5114210;28;20093;-62
2021/12/18 12:06:23;;;;;;;19.40;9.90;;;;;;;;;;5113767;28;20043;-62
2021/12/18 12:08:52;;;;;;;16.70;9.45;;;;;;;;;;5111908;28;20478;-62
2021/12/18 12:11:23;;;;;;;8.93;5.50;;;;;;;;;;5114559;28;20050;-62
2021/12/18 12:13:55;;;;;;;5.28;3.50;;;;;;;;;;5111495;28;20051;-61
2021/12/18 12:16:36;;;;;;;3.58;2.55;;;;;;;;;;5114338;28;20044;-61
2021/12/18 12:19:04;;;;;;;3.22;2.22;;;;;;;;;;5112943;28;20100;-61
2021/12/18 12:21:39;;;;;;;1.95;1.63;;;;;;;;;;5114404;28;20039;-62
2021/12/18 12:24:06;;;;;;;7.72;4.80;;;;;;;;;;5114071;28;20047;-62
2021/12/18 12:26:32;;;;;;;14.20;8.30;;;;;;;;;;5113729;27;20320;-61
2021/12/18 12:29:00;;;;;;;8.15;5.20;;;;;;;;;;5113973;28;20441;-61
2021/12/18 12:31:27;;;;;;;3.55;2.80;;;;;;;;;;5114198;28;20432;-61
2021/12/18 12:34:14;;;;;;;3.05;1.90;;;;;;;;;;5112806;28;20075;-61
2021/12/18 12:36:45;;;;;;;3.17;2.13;;;;;;;;;;5113988;28;20039;-62
2021/12/18 12:39:11;;;;;;;2.97;2.25;;;;;;;;;;5114102;28;20067;-61
2021/12/18 12:41:38;;;;;;;2.15;1.80;;;;;;;;;;5113137;28;20040;-62
2021/12/18 12:44:14;;;;;;;3.03;2.00;;;;;;;;;;5113579;28;20100;-64
2021/12/18 12:46:40;;;;;;;4.53;2.03;;;;;;;;;;5113231;28;20079;-64
2021/12/18 12:49:08;;;;;;;4.03;1.80;;;;;;;;;;5112504;28;20047;-64
2021/12/18 12:51:59;;;;;;;1.60;1.42;;;;;;;;;;5113595;28;20081;-65
2021/12/18 12:54:45;;;;;;;2.83;1.50;;;;;;;;;;5112899;28;20087;-66
2021/12/18 12:57:30;;;;;;;3.17;1.90;;;;;;;;;;5113874;28;20069;-65
2021/12/18 13:00:23;;;;;;;3.72;2.30;;;;;;;;;;5113404;28;20048;-62
2021/12/18 13:02:50;;;;;;;3.25;2.45;;;;;;;;;;5111999;28;20195;-64
2021/12/18 13:05:17;;;;;;;3.55;2.58;;;;;;;;;;5113366;28;20088;-64
2021/12/18 13:07:45;;;;;;;2.97;2.28;;;;;;;;;;5113054;28;20479;-65
2021/12/18 13:10:11;;;;;;;3.03;2.50;;;;;;;;;;5112410;28;20044;-63
2021/12/18 13:12:51;;;;;;;3.13;2.47;;;;;;;;;;5113122;28;20043;-66
2021/12/18 13:15:18;;;;;;;3.33;2.67;;;;;;;;;;5112680;28;20455;-65
2021/12/18 13:17:45;;;;;;;4.43;2.42;;;;;;;;;;5113064;28;20048;-65
2021/12/18 13:20:11;;;;;;;3.00;2.60;;;;;;;;;;5113184;28;20044;-64
2021/12/18 13:22:38;;;;;;;5.03;2.58;;;;;;;;;;5112346;28;20047;-63
2021/12/18 13:25:05;;;;;;;4.55;2.60;;;;;;;;;;5112370;28;20097;-62
2021/12/18 13:27:31;;;;;;;3.38;2.60;;;;;;;;;;5109706;28;20485;-62
2021/12/18 13:30:09;;;;;;;3.45;2.97;;;;;;;;;;5110812;28;20048;-62
2021/12/18 13:32:37;;;;;;;3.90;2.70;;;;;;;;;;5105253;28;20043;-62
2021/12/18 13:35:12;;;;;;;4.35;2.60;;;;;;;;;;5112577;28;20047;-62
2021/12/18 13:37:38;;;;;;;3.38;2.53;;;;;;;;;;5112058;28;20043;-62
2021/12/18 13:40:13;;;;;;;5.25;2.75;;;;;;;;;;5112353;28;20052;-62
2021/12/18 13:42:39;;;;;;;2.90;2.60;;;;;;;;;;5112681;28;20048;-62
2021/12/18 13:45:06;;;;;;;5.85;2.80;;;;;;;;;;5111634;28;20043;-62
2021/12/18 13:47:33;;;;;;;4.75;2.70;;;;;;;;;;5112713;28;20047;-62
2021/12/18 13:50:02;;;;;;;8.57;4.15;;;;;;;;;;5112072;28;20043;-63
2021/12/18 13:52:36;;;;;;;7.47;5.50;;;;;;;;;;5111497;28;20555;-65
2021/12/18 13:55:02;;;;;;;7.88;5.18;;;;;;;;;;5112321;28;20055;-62
2021/12/18 13:57:28;;;;;;;6.88;5.53;;;;;;;;;;5111776;28;20051;-62
2021/12/18 13:59:58;;;;;;;6.95;5.80;;;;;;;;;;5111717;28;20051;-62
2021/12/18 14:02:24;;;;;;;6.30;5.60;;;;;;;;;;5112226;28;20040;-62
2021/12/18 14:04:51;;;;;;;6.70;5.53;;;;;;;;;;5111167;28;20101;-62
2021/12/18 14:07:19;;;;;;;8.75;6.63;;;;;;;;;;5112153;28;20452;-62
2021/12/18 14:09:49;;;;;;;8.32;6.18;;;;;;;;;;5112068;28;20093;-62
2021/12/18 14:12:21;;;;;;;8.38;6.78;;;;;;;;;;5111474;28;20040;-62
2021/12/18 14:14:48;;;;;;;8.88;6.68;;;;;;;;;;5111894;28;20075;-62
2021/12/18 14:17:16;;;;;;;9.20;6.47;;;;;;;;;;5112005;28;20126;-62
2021/12/18 14:19:47;;;;;;;7.95;5.97;;;;;;;;;;5096538;28;20075;-62
2021/12/18 14:22:13;;;;;;;5.70;5.00;;;;;;;;;;5091586;28;20479;-62
2021/12/18 14:24:41;;;;;;;7.35;5.63;;;;;;;;;;5091459;28;20487;-62
2021/12/18 14:27:08;;;;;;;5.55;4.93;;;;;;;;;;5090475;28;20505;-62
2021/12/18 14:29:36;;;;;;;6.10;4.88;;;;;;;;;;5101529;28;20070;-62
2021/12/18 14:32:04;;;;;;;6.75;6.05;;;;;;;;;;5111058;28;20387;-62
2021/12/18 14:34:32;;;;;;;5.53;4.90;;;;;;;;;;5110942;28;20112;-62
2021/12/18 14:37:04;;;;;;;5.03;4.53;;;;;;;;;;5111434;28;20394;-62
2021/12/18 14:39:32;;;;;;;6.30;5.47;;;;;;;;;;5111674;28;20051;-62
2021/12/18 14:42:01;;;;;;;5.88;5.00;;;;;;;;;;5110598;28;20428;-65
2021/12/18 14:44:29;;;;;;;6.28;5.15;;;;;;;;;;5111819;28;20448;-64
2021/12/18 14:47:06;;;;;;;7.80;5.80;;;;;;;;;;5110597;28;20140;-64
2021/12/18 14:49:32;;;;;;;6.47;5.88;;;;;;;;;;5111691;28;20040;-64
2021/12/18 14:52:01;;;;;;;6.72;6.03;;;;;;;;;;5111396;28;20052;-63
2021/12/18 14:54:27;;;;;;;6.80;6.10;;;;;;;;;;5109588;28;20054;-62
2021/12/18 14:57:09;;;;;;;8.35;6.55;;;;;;;;;;5109298;28;20101;-63
2021/12/18 14:59:36;;;;;;;17.67;7.60;;;;;;;;;;5109205;28;20522;-62
2021/12/18 15:02:03;;;;;;;12.25;7.03;;;;;;;;;;5110692;28;20074;-62
2021/12/18 15:04:29;;;;;;;11.85;6.13;;;;;;;;;;5111113;28;20490;-62
2021/12/18 15:06:56;;;;;;;19.85;6.82;;;;;;;;;;5110418;28;20060;-62
2021/12/18 15:09:24;;;;;;;14.20;6.50;;;;;;;;;;5110756;28;20526;-62
2021/12/18 15:11:50;;;;;;;23.05;7.80;;;;;;;;;;5114735;28;20130;-62
2021/12/18 15:14:18;;;;;;;16.05;6.88;;;;;;;;;;5115658;28;20112;-62
2021/12/18 15:16:46;;;;;;;19.27;7.05;;;;;;;;;;5114550;28;20046;-63
2021/12/18 15:19:14;;;;;;;21.48;7.68;;;;;;;;;;5115530;28;20052;-62